Terminal Aerodrome Forecast
Issued by NWS

Current Version | Previous Version | Graphics & Text | Print | Product List | Glossary On
Versions: 1 2 3 4 5 6 7 8 9 10 11 12 13 14 15 16 17 18 19 20 21 22 23 24 25 26 27
000
FTUS41 KRLX 262200 AAA
TAFCKB
TAF AMD
KCKB 262218Z 2622/2718 22006KT P6SM BKN050
      TEMPO 2622/2701 2SM TSRA BR BKN025CB
     FM270500 21004KT P6SM VCTS BKN040CB
     FM270800 21004KT 4SM BR VCTS BKN030CB
     FM271000 21005KT 3SM TSRA BR BKN025CB
     FM271500 20008KT 4SM TSRA BR BKN025CB=

USA.gov is the U.S. government's official web portal to all federal, state and local government web resources and services.